createdAt,value
2023-01-11T11:04:35.467Z,-3.90
2023-01-11T11:07:10.406Z,-3.90
2023-01-11T11:11:27.574Z,-2.34
2023-01-11T11:15:01.387Z,-1.81
2023-01-11T11:17:32.236Z,-1.91
2023-01-11T11:20:00.254Z,-1.92
2023-01-11T11:22:27.751Z,-1.98
2023-01-11T11:25:00.330Z,-1.98
2023-01-11T11:27:38.364Z,-1.92
2023-01-11T11:30:11.373Z,-1.91
2023-01-11T11:32:46.596Z,-1.94
2023-01-11T11:35:31.001Z,-1.95
2023-01-11T11:37:58.863Z,-1.82
2023-01-11T11:40:33.129Z,-1.76
2023-01-11T11:43:20.109Z,-1.73
2023-01-11T11:45:54.200Z,-1.81
2023-01-11T11:48:22.265Z,-1.84
2023-01-11T11:50:53.847Z,-1.82
2023-01-11T11:53:30.254Z,-1.76
2023-01-11T11:55:58.066Z,-1.64
2023-01-11T11:58:27.359Z,-1.63
2023-01-11T12:00:56.831Z,-1.48
2023-01-11T12:03:28.376Z,-1.62
2023-01-11T12:05:59.378Z,-1.59
2023-01-11T12:08:28.466Z,-1.59
2023-01-11T12:10:58.504Z,-1.53
2023-01-11T12:13:29.915Z,-1.66
2023-01-11T12:16:00.545Z,-1.58
2023-01-11T12:18:30.590Z,-1.62
2023-01-11T12:21:09.780Z,-1.56
2023-01-11T12:23:37.756Z,-1.54
2023-01-11T12:26:16.719Z,-1.61
2023-01-11T12:29:14.042Z,-1.56
2023-01-11T12:31:56.266Z,-1.60
2023-01-11T12:34:40.938Z,-1.57
2023-01-11T12:37:20.077Z,-1.62
2023-01-11T12:39:53.682Z,-1.63
2023-01-11T12:42:38.723Z,-1.58
2023-01-11T12:45:16.444Z,-1.54
2023-01-11T12:48:07.796Z,-1.55
2023-01-11T12:50:47.328Z,-1.56
2023-01-11T12:53:41.843Z,-1.49
2023-01-11T12:59:27.903Z,-1.56
2023-01-11T13:02:07.959Z,-1.62
2023-01-11T13:05:01.623Z,-1.51
2023-01-11T13:07:46.495Z,-1.48
2023-01-11T13:10:33.082Z,-1.44
2023-01-11T13:13:10.319Z,-1.44
2023-01-11T13:15:45.509Z,-1.44
2023-01-11T13:18:26.749Z,-1.49
2023-01-11T13:21:02.218Z,-1.44
2023-01-11T13:23:39.112Z,-1.38
2023-01-11T13:26:21.570Z,-1.37
2023-01-11T13:28:55.507Z,-1.33
2023-01-11T13:31:24.032Z,-1.43
2023-01-11T13:33:59.446Z,-1.42
2023-01-11T13:36:33.230Z,-1.40
2023-01-11T13:39:07.401Z,-1.38
2023-01-11T13:41:42.506Z,-1.43
2023-01-11T13:44:17.873Z,-1.46
2023-01-11T13:46:58.182Z,-1.47
2023-01-11T13:49:38.900Z,-1.47
2023-01-11T13:52:12.832Z,-1.50
2023-01-11T13:54:49.385Z,-1.46
2023-01-11T13:57:25.006Z,-1.47
2023-01-11T13:59:57.684Z,-1.44
2023-01-11T14:02:38.024Z,-1.43
2023-01-11T14:05:14.341Z,-1.46
2023-01-11T14:07:57.379Z,-1.46
2023-01-11T14:10:37.078Z,-1.48
2023-01-11T18:51:29.051Z,-1.91
2023-01-11T18:53:56.835Z,-2.01
2023-01-11T18:56:24.452Z,-1.95
2023-01-11T18:58:52.152Z,-1.93
2023-01-11T19:01:19.891Z,-1.98
2023-01-11T19:03:47.480Z,-1.99
2023-01-11T19:06:15.904Z,-2.05
2023-01-11T19:08:45.357Z,-2.09
2023-01-11T19:11:12.861Z,-2.07
2023-01-11T19:13:40.989Z,-2.08
2023-01-11T19:16:09.035Z,-2.11
2023-01-11T19:18:36.621Z,-2.11
2023-01-11T19:21:05.680Z,-2.16
2023-01-11T19:23:38.125Z,-2.19
2023-01-11T19:26:07.831Z,-2.16
2023-01-11T19:28:36.680Z,-2.20
2023-01-11T19:31:07.781Z,-2.27
2023-01-11T19:33:35.979Z,-2.23
2023-01-11T19:36:05.729Z,-2.25
2023-01-11T19:38:33.423Z,-2.24
2023-01-11T19:41:05.162Z,-2.30
2023-01-11T19:43:34.251Z,-2.29
2023-01-11T19:46:02.154Z,-2.28
2023-01-11T19:48:30.697Z,-2.32
2023-01-11T19:51:01.819Z,-2.35
2023-01-11T19:53:30.878Z,-2.33
2023-01-11T19:56:00.907Z,-2.35
2023-01-11T19:58:29.051Z,-2.36
2023-01-11T20:00:58.097Z,-2.32
2023-01-11T20:03:26.107Z,-2.33
2023-01-11T20:05:53.734Z,-2.41
2023-01-11T20:08:21.431Z,-2.41
2023-01-11T20:10:49.007Z,-2.49
2023-01-11T20:13:17.025Z,-2.54
2023-01-11T20:15:44.776Z,-2.55
2023-01-11T20:18:13.777Z,-2.51
2023-01-11T20:20:42.075Z,-2.58
2023-01-11T20:23:09.604Z,-2.60
2023-01-11T20:25:37.223Z,-2.63
2023-01-11T20:28:05.138Z,-2.63
2023-01-11T20:30:32.962Z,-2.60
2023-01-11T20:33:00.492Z,-2.62
2023-01-11T20:35:29.977Z,-2.61
2023-01-11T20:37:58.644Z,-2.56
2023-01-11T20:40:26.242Z,-2.53
2023-01-11T20:42:54.031Z,-2.58
2023-01-11T20:45:21.679Z,-2.58
2023-01-11T20:47:50.873Z,-2.57
2023-01-11T20:50:18.567Z,-2.48
2023-01-11T20:52:48.314Z,-2.52
2023-01-11T20:55:16.068Z,-2.46
2023-01-11T20:57:45.217Z,-2.45
2023-01-11T21:00:13.678Z,-2.45
2023-01-11T21:02:42.517Z,-2.43
2023-01-11T21:05:10.839Z,-2.41
2023-01-11T21:07:38.639Z,-2.43
2023-01-11T21:10:09.119Z,-2.34
2023-01-11T21:15:04.610Z,-2.34
2023-01-11T21:17:32.242Z,-2.34
2023-01-11T21:19:59.911Z,-2.28
2023-01-11T21:22:27.571Z,-2.28
2023-01-11T21:24:55.458Z,-2.21
2023-01-11T21:27:24.659Z,-2.20
2023-01-11T21:29:52.431Z,-2.15
2023-01-11T21:32:19.955Z,-2.20
2023-01-11T21:34:47.827Z,-2.21
2023-01-11T21:37:15.592Z,-2.28
2023-01-11T21:39:43.113Z,-2.26
2023-01-11T21:42:11.962Z,-2.27
2023-01-11T21:44:41.204Z,-2.23
2023-01-11T21:47:08.731Z,-2.30
2023-01-11T21:49:36.572Z,-2.32
2023-01-11T21:52:04.558Z,-2.33
2023-01-11T21:54:32.400Z,-2.30
2023-01-11T21:57:01.806Z,-2.32
2023-01-11T21:59:29.974Z,-2.30
2023-01-11T22:01:58.937Z,-2.26
2023-01-11T22:04:27.172Z,-2.24
2023-01-11T22:06:56.832Z,-2.28
2023-01-11T22:09:26.664Z,-2.30
2023-01-11T22:11:54.883Z,-2.30
2023-01-11T22:14:23.166Z,-2.27
2023-01-11T22:16:50.876Z,-2.25
2023-01-11T22:19:19.961Z,-2.24
2023-01-11T22:21:47.755Z,-2.23
2023-01-11T22:24:15.368Z,-2.20
2023-01-11T22:26:43.173Z,-2.21
2023-01-11T22:29:10.892Z,-2.22
2023-01-11T22:31:39.823Z,-2.19
2023-01-11T22:34:07.563Z,-2.21
2023-01-11T22:36:36.745Z,-2.21
2023-01-11T22:39:04.555Z,-2.15
2023-01-11T22:41:32.461Z,-2.13
2023-01-11T22:44:00.159Z,-2.13
2023-01-11T22:46:28.168Z,-2.11
2023-01-11T22:48:55.930Z,-2.13
2023-01-11T22:51:26.668Z,-2.10
2023-01-11T22:53:56.683Z,-2.06
2023-01-11T22:56:26.034Z,-2.08
2023-01-11T22:58:54.264Z,-2.11
2023-01-11T23:01:23.803Z,-2.25
2023-01-11T23:03:53.371Z,-2.15
2023-01-11T23:06:22.155Z,-2.19
2023-01-11T23:08:50.803Z,-2.21
2023-01-11T23:11:22.899Z,-2.22
2023-01-11T23:13:50.425Z,-2.23
2023-01-11T23:16:18.276Z,-2.33
2023-01-11T23:18:46.085Z,-2.19
2023-01-11T23:21:14.158Z,-2.22
2023-01-11T23:23:42.130Z,-2.21
2023-01-11T23:26:10.453Z,-2.22
2023-01-11T23:28:39.966Z,-2.22
2023-01-11T23:31:08.848Z,-2.16
